Time;durP1;ratioP1;P1;durP2;ratioP2;P2;SDS_P1;SDS_P2;PMS_P1;PMS_P2;Temp;Humidity;BMP_temperature;BMP_pressure;BME280_temperature;BME280_humidity;BME280_pressure;Samples;Min_cycle;Max_cycle;Signal;HPM_P1;HPM_P2
2023/04/01 00:01:58;;;;;;;8.85;4.85;;;;;;;9.96;63.49;98441.31;6109179;23;20001;-87
2023/04/01 00:04:24;;;;;;;8.95;4.97;;;;;;;9.93;63.13;98433.81;6108747;23;20010;-87
2023/04/01 00:06:49;;;;;;;8.90;5.03;;;;;;;9.85;63.78;98431.75;6108933;23;20001;-87
2023/04/01 00:09:15;;;;;;;8.75;5.38;;;;;;;9.96;63.31;98416.28;6109765;23;20333;-87
2023/04/01 00:11:40;;;;;;;12.32;5.38;;;;;;;10.16;62.17;98418.72;6109977;23;20322;-87
2023/04/01 00:14:06;;;;;;;10.40;5.38;;;;;;;10.16;62.14;98418.72;6109683;23;20499;-88
2023/04/01 00:16:32;;;;;;;9.20;5.10;;;;;;;10.25;62.32;98416.19;6109332;23;20029;-88
2023/04/01 00:18:57;;;;;;;9.57;5.00;;;;;;;10.40;62.09;98420.63;6109526;23;20013;-87
2023/04/01 00:21:23;;;;;;;11.25;5.75;;;;;;;10.30;62.31;98405.41;6108770;23;19997;-87
2023/04/01 00:23:50;;;;;;;7.75;5.00;;;;;;;10.36;62.09;98411.53;6109722;23;20067;-87
2023/04/01 00:26:18;;;;;;;8.55;5.45;;;;;;;10.43;62.08;98417.34;6085507;23;19998;-88
2023/04/01 00:28:44;;;;;;;8.98;5.30;;;;;;;10.38;62.04;98406.66;6110409;23;20021;-88
2023/04/01 00:31:10;;;;;;;9.10;5.68;;;;;;;10.45;61.92;98409.78;6109231;23;20009;-88
2023/04/01 00:33:36;;;;;;;10.45;5.78;;;;;;;10.58;61.74;98419.78;6085647;23;20459;-87
2023/04/01 00:36:09;;;;;;;10.20;5.55;;;;;;;10.47;61.54;98394.13;6109686;23;20001;-87
2023/04/01 00:38:36;;;;;;;7.43;4.63;;;;;;;10.39;62.00;98392.88;6087110;23;19989;-88
2023/04/01 00:41:01;;;;;;;8.70;5.00;;;;;;;10.38;62.36;98401.28;6085272;23;20482;-88
2023/04/01 00:43:26;;;;;;;9.13;4.82;;;;;;;10.36;62.24;98393.47;6108686;23;20002;-88
2023/04/01 00:45:52;;;;;;;7.45;4.97;;;;;;;10.17;62.38;98385.38;6108655;23;20008;-87
2023/04/01 00:48:22;;;;;;;7.55;5.10;;;;;;;10.36;62.38;98396.16;6110557;23;20409;-87
2023/04/01 00:50:50;;;;;;;7.28;4.57;;;;;;;10.36;62.32;98384.63;6134498;23;20008;-87
2023/04/01 00:53:16;;;;;;;7.10;3.92;;;;;;;10.48;61.48;98384.97;6085950;23;20336;-87
2023/04/01 00:55:45;;;;;;;9.38;4.22;;;;;;;10.59;61.18;98372.16;6084517;23;20013;-88
2023/04/01 00:58:14;;;;;;;6.95;3.42;;;;;;;10.67;61.33;98371.50;6109181;23;20076;-87
2023/04/01 01:00:39;;;;;;;8.20;4.70;;;;;;;10.79;61.13;98384.47;6086272;23;20080;-88
2023/04/01 01:03:05;;;;;;;6.20;3.20;;;;;;;10.81;60.40;98368.84;6108041;23;20396;-88
2023/04/01 01:06:10;;;;;;;12.30;4.78;;;;;;;10.85;60.57;98367.16;6109523;23;20010;-88
2023/04/01 01:09:00;;;;;;;10.90;3.65;;;;;;;10.93;60.05;98369.16;6157854;23;20345;-87
2023/04/01 01:11:33;;;;;;;4.50;2.65;;;;;;;10.96;59.29;98367.78;6157761;23;20012;-87
2023/04/01 01:14:03;;;;;;;4.13;2.70;;;;;;;11.03;59.14;98360.91;6108895;23;20017;-87
2023/04/01 01:16:34;;;;;;;6.15;2.70;;;;;;;11.13;58.90;98362.63;6085262;23;20006;-87
2023/04/01 01:19:27;;;;;;;3.75;2.67;;;;;;;11.22;58.67;98374.31;6110196;23;20089;-87
2023/04/01 01:21:59;;;;;;;7.53;2.47;;;;;;;11.33;58.13;98366.88;6158202;23;20001;-87
2023/04/01 01:24:44;;;;;;;5.63;2.90;;;;;;;11.43;57.93;98363.16;6157845;23;19997;-87
2023/04/01 01:27:11;;;;;;;5.40;2.45;;;;;;;11.39;57.55;98352.16;6131957;23;20061;-87
2023/04/01 01:29:55;;;;;;;4.47;2.55;;;;;;;11.53;57.21;98354.88;6108815;23;20025;-87
2023/04/01 01:32:54;;;;;;;4.07;2.40;;;;;;;11.51;56.86;98339.00;6156693;23;20022;-88
2023/04/01 01:35:39;;;;;;;3.60;2.33;;;;;;;11.64;56.95;98347.38;6136415;23;19998;-88
2023/04/01 01:38:10;;;;;;;4.97;2.35;;;;;;;11.69;56.85;98352.69;6132688;23;20013;-88
2023/04/01 01:40:36;;;;;;;4.70;2.55;;;;;;;11.70;56.97;98340.78;6109767;23;20417;-87
2023/04/01 01:43:06;;;;;;;7.97;2.70;;;;;;;11.70;56.82;98341.59;6108782;23;20018;-87
2023/04/01 01:45:33;;;;;;;3.42;2.05;;;;;;;11.73;56.80;98348.28;6085153;23;20044;-87
2023/04/01 01:47:58;;;;;;;4.25;2.50;;;;;;;11.77;56.79;98351.19;6109335;23;20417;-87
2023/04/01 01:50:24;;;;;;;3.67;2.33;;;;;;;11.73;56.32;98335.59;6108832;23;20002;-88
2023/04/01 01:52:49;;;;;;;7.50;2.40;;;;;;;11.74;56.52;98336.38;6108157;23;20005;-88
2023/04/01 01:55:35;;;;;;;7.82;2.53;;;;;;;11.84;56.31;98346.97;6107943;23;20005;-87
2023/04/01 01:58:13;;;;;;;3.67;2.10;;;;;;;11.80;56.42;98335.19;6132410;23;20144;-87
2023/04/01 02:00:38;;;;;;;6.07;3.88;;;;;;;11.76;57.29;98333.41;6133371;23;20008;-88
2023/04/01 02:03:04;;;;;;;5.65;2.80;;;;;;;11.72;57.58;98335.88;6107519;23;20002;-87
2023/04/01 02:05:30;;;;;;;6.95;2.38;;;;;;;11.74;56.53;98331.00;6108841;23;20062;-88
2023/04/01 02:08:01;;;;;;;2.90;2.13;;;;;;;11.77;56.59;98335.81;6108906;23;20001;-87
2023/04/01 02:10:26;;;;;;;7.30;2.70;;;;;;;11.75;56.92;98329.13;6108089;23;20051;-88
2023/04/01 02:12:52;;;;;;;4.97;2.83;;;;;;;11.78;56.74;98336.59;6108338;23;20380;-87
2023/04/01 02:15:21;;;;;;;4.95;2.65;;;;;;;11.68;57.15;98324.94;6108425;23;20345;-88
2023/04/01 02:17:46;;;;;;;5.55;3.13;;;;;;;11.64;57.10;98325.81;6109112;23;20001;-88
2023/04/01 02:20:21;;;;;;;7.78;2.95;;;;;;;11.70;57.18;98328.13;6107902;23;20045;-88
2023/04/01 02:22:52;;;;;;;3.35;2.20;;;;;;;11.67;56.94;98320.63;6132383;23;20001;-88
2023/04/01 02:25:20;;;;;;;4.43;2.42;;;;;;;11.70;56.98;98322.72;6108827;23;20057;-87
2023/04/01 02:27:46;;;;;;;4.72;2.67;;;;;;;11.66;56.93;98315.53;6107279;23;20440;-87
2023/04/01 02:30:13;;;;;;;3.55;2.28;;;;;;;11.69;56.67;98310.34;6108312;23;20088;-88
2023/04/01 02:32:38;;;;;;;4.30;2.72;;;;;;;11.77;56.57;98313.44;6121499;23;20017;-88
2023/04/01 02:35:06;;;;;;;6.70;2.70;;;;;;;11.73;56.27;98307.84;6108231;23;20006;-87
2023/04/01 02:37:31;;;;;;;4.50;2.20;;;;;;;11.66;56.44;98289.38;6109926;23;20015;-87
2023/04/01 02:40:01;;;;;;;5.30;2.72;;;;;;;11.77;56.34;98299.94;6108037;23;20012;-87
2023/04/01 02:42:27;;;;;;;6.05;2.70;;;;;;;11.79;56.46;98292.34;6108203;23;20053;-87
2023/04/01 02:44:52;;;;;;;4.57;2.83;;;;;;;11.76;56.38;98287.56;6107962;23;20005;-87
2023/04/01 02:47:17;;;;;;;3.40;2.33;;;;;;;11.76;56.43;98279.47;6108007;23;20063;-88
2023/04/01 02:49:43;;;;;;;9.15;2.55;;;;;;;11.79;56.29;98281.56;6108527;23;20005;-87
2023/04/01 02:52:10;;;;;;;3.55;2.40;;;;;;;11.77;55.71;98270.28;6109050;23;20025;-87
2023/04/01 02:54:36;;;;;;;3.80;2.80;;;;;;;11.79;55.70;98276.97;6107836;23;20009;-88
2023/04/01 02:57:01;;;;;;;5.40;3.00;;;;;;;11.80;56.15;98278.53;6108038;23;20016;-88
2023/04/01 02:59:26;;;;;;;3.25;2.30;;;;;;;11.83;55.73;98272.56;6108664;23;20037;-87
2023/04/01 03:01:52;;;;;;;3.03;2.25;;;;;;;11.86;55.61;98280.03;6108156;23;20395;-87
2023/04/01 03:04:17;;;;;;;4.43;2.22;;;;;;;11.96;55.37;98280.94;6107112;23;20036;-87
2023/04/01 03:06:43;;;;;;;3.60;2.15;;;;;;;11.94;55.02;98270.47;6107516;23;20021;-88
2023/04/01 03:09:08;;;;;;;7.18;3.78;;;;;;;11.89;56.68;98274.06;6108607;23;20001;-87
2023/04/01 03:11:34;;;;;;;4.65;2.40;;;;;;;11.85;55.52;98275.75;6108034;23;20008;-88
2023/04/01 03:13:59;;;;;;;3.97;2.28;;;;;;;11.96;55.51;98278.25;6107345;23;20008;-87
2023/04/01 03:16:25;;;;;;;5.57;2.45;;;;;;;12.01;54.94;98275.44;6107131;23;20001;-87
2023/04/01 03:18:52;;;;;;;3.72;2.30;;;;;;;12.09;54.63;98285.50;6108042;23;20009;-88
2023/04/01 03:21:22;;;;;;;6.65;2.58;;;;;;;12.07;54.67;98274.22;6108169;23;20071;-88
2023/04/01 03:23:47;;;;;;;5.60;2.83;;;;;;;12.11;54.24;98270.59;6107504;23;20002;-88
2023/04/01 03:26:13;;;;;;;2.97;2.15;;;;;;;12.10;54.61;98258.22;6107670;23;19998;-87
2023/04/01 03:28:38;;;;;;;5.72;2.30;;;;;;;12.20;54.67;98275.25;6108296;23;19997;-87
2023/04/01 03:31:04;;;;;;;3.33;2.30;;;;;;;12.18;54.50;98270.19;6107941;23;20365;-88
2023/04/01 03:33:31;;;;;;;4.65;2.60;;;;;;;12.16;54.34;98268.88;6107480;23;20021;-87
2023/04/01 03:35:56;;;;;;;5.60;2.38;;;;;;;12.18;54.92;98277.47;6108632;23;20013;-87
2023/04/01 03:38:21;;;;;;;8.55;2.45;;;;;;;12.15;54.34;98267.28;6107520;23;20020;-88
2023/04/01 03:40:47;;;;;;;5.72;2.55;;;;;;;12.13;54.68;98273.78;6106845;23;20032;-87
2023/04/01 03:43:12;;;;;;;5.90;2.38;;;;;;;12.13;54.42;98263.00;6107376;23;19997;-88
2023/04/01 03:45:45;;;;;;;4.57;2.17;;;;;;;12.10;53.95;98249.34;6107292;23;20001;-88
2023/04/01 03:48:11;;;;;;;4.60;2.28;;;;;;;12.21;53.96;98260.69;6107980;23;20404;-88
2023/04/01 03:50:36;;;;;;;5.85;2.22;;;;;;;12.20;54.37;98261.75;6107937;23;20001;-89
2023/04/01 03:53:01;;;;;;;4.40;2.20;;;;;;;12.19;54.05;98257.47;6107413;23;20012;-89
2023/04/01 03:55:27;;;;;;;5.28;2.50;;;;;;;12.11;54.40;98265.19;6106965;23;19997;-88
2023/04/01 03:57:52;;;;;;;4.80;2.53;;;;;;;12.17;53.82;98275.88;6107408;23;20445;-88
2023/04/01 04:00:18;;;;;;;8.45;2.42;;;;;;;12.17;54.15;98279.38;6106891;23;20084;-88
2023/04/01 04:02:44;;;;;;;5.90;2.17;;;;;;;12.22;53.99;98275.75;6107718;23;20009;-87
2023/04/01 04:05:10;;;;;;;3.45;2.33;;;;;;;12.21;53.91;98261.47;6107947;23;20446;-89
2023/04/01 04:07:36;;;;;;;3.03;2.00;;;;;;;12.28;53.67;98264.53;6108430;23;20060;-88
2023/04/01 04:10:01;;;;;;;4.07;2.25;;;;;;;12.27;53.51;98257.53;6107772;23;20005;-88
2023/04/01 04:12:26;;;;;;;3.47;2.20;;;;;;;12.35;53.65;98269.50;6107579;23;20376;-87
2023/04/01 04:14:52;;;;;;;7.15;2.53;;;;;;;12.30;53.60;98256.91;6106571;23;20012;-88
2023/04/01 04:17:17;;;;;;;4.53;2.60;;;;;;;12.35;54.48;98264.13;6132484;23;20036;-88
2023/04/01 04:19:43;;;;;;;6.75;3.47;;;;;;;12.39;53.96;98266.97;6107586;23;20382;-88
2023/04/01 04:22:08;;;;;;;9.68;3.28;;;;;;;12.30;53.80;98251.50;6107975;23;20065;-87
2023/04/01 04:24:35;;;;;;;5.72;3.22;;;;;;;12.36;53.94;98254.91;6107791;23;19989;-87
2023/04/01 04:27:00;;;;;;;4.75;3.05;;;;;;;12.41;53.84;98272.88;6107348;23;20037;-87
2023/04/01 04:29:26;;;;;;;8.13;2.65;;;;;;;12.38;53.90;98265.41;6106610;23;20025;-87
2023/04/01 04:31:51;;;;;;;7.07;2.80;;;;;;;12.40;53.71;98250.47;6107735;23;20028;-88
2023/04/01 04:34:18;;;;;;;8.23;2.80;;;;;;;12.48;53.55;98260.53;6107499;23;20001;-87
2023/04/01 04:36:43;;;;;;;5.88;2.67;;;;;;;12.50;53.22;98261.03;6107999;23;20010;-87
2023/04/01 04:39:09;;;;;;;7.45;2.78;;;;;;;12.58;53.28;98266.81;6107450;23;20028;-87
2023/04/01 04:41:36;;;;;;;6.25;3.20;;;;;;;12.64;52.96;98269.06;6107913;23;20001;-88
2023/04/01 04:44:02;;;;;;;7.50;3.88;;;;;;;12.66;52.54;98258.75;6108535;23;20005;-88
2023/04/01 04:46:27;;;;;;;8.90;4.35;;;;;;;12.69;52.16;98254.63;6110106;23;20075;-88
2023/04/01 04:48:53;;;;;;;11.80;4.25;;;;;;;12.73;52.65;98259.09;6109645;23;20001;-88
2023/04/01 04:51:19;;;;;;;10.25;4.07;;;;;;;12.79;52.48;98251.66;6109742;23;20002;-88
2023/04/01 04:53:44;;;;;;;8.27;3.40;;;;;;;12.86;52.54;98248.50;6109794;23;20005;-88
2023/04/01 04:56:10;;;;;;;12.65;4.00;;;;;;;12.97;52.65;98254.44;6108310;23;20002;-88
2023/04/01 04:58:36;;;;;;;7.53;3.05;;;;;;;13.07;51.87;98257.66;6109277;23;20006;-88
2023/04/01 05:01:12;;;;;;;9.82;3.10;;;;;;;13.13;52.11;98252.91;6107905;23;20008;-88
2023/04/01 05:03:37;;;;;;;6.78;2.92;;;;;;;13.18;52.26;98246.53;6133700;23;20001;-89
2023/04/01 05:06:03;;;;;;;4.10;2.85;;;;;;;13.18;52.00;98243.84;6108801;23;20009;-88
2023/04/01 05:08:29;;;;;;;7.00;3.28;;;;;;;13.29;51.30;98246.00;6108968;23;19998;-88
2023/04/01 05:10:54;;;;;;;6.40;3.30;;;;;;;13.29;51.59;98237.88;6133733;23;19997;-88
2023/04/01 05:13:20;;;;;;;7.00;2.83;;;;;;;13.39;51.32;98246.81;6109005;23;20008;-88
2023/04/01 05:15:45;;;;;;;6.28;2.90;;;;;;;13.31;51.14;98227.53;6108687;23;20009;-88
2023/04/01 05:18:11;;;;;;;8.23;2.95;;;;;;;13.43;51.03;98229.66;6108664;23;20357;-88
2023/04/01 05:20:36;;;;;;;6.70;2.80;;;;;;;13.61;50.34;98243.19;6110205;23;20002;-88
2023/04/01 05:23:02;;;;;;;5.03;2.70;;;;;;;13.53;50.28;98212.34;6108699;23;20012;-88
2023/04/01 05:25:27;;;;;;;7.93;3.25;;;;;;;13.66;50.23;98230.31;6134484;23;20448;-88
2023/04/01 05:27:53;;;;;;;6.28;2.67;;;;;;;13.72;49.79;98225.56;6108683;23;19997;-88
2023/04/01 05:30:18;;;;;;;6.55;2.33;;;;;;;13.77;49.20;98222.69;6108776;23;20001;-87
2023/04/01 05:32:44;;;;;;;5.30;2.63;;;;;;;13.84;49.48;98220.31;6108005;23;20021;-89
2023/04/01 05:35:10;;;;;;;5.93;2.60;;;;;;;13.89;48.78;98209.31;6108900;23;20329;-87
2023/04/01 05:37:35;;;;;;;7.03;2.70;;;;;;;14.11;48.74;98224.59;6110140;23;20417;-87
2023/04/01 05:40:01;;;;;;;4.50;2.58;;;;;;;14.26;48.86;98219.81;6108735;23;20413;-86
2023/04/01 05:42:26;;;;;;;7.80;3.15;;;;;;;14.31;48.92;98216.91;6109503;23;20385;-87
2023/04/01 05:44:52;;;;;;;7.68;3.30;;;;;;;14.40;48.15;98215.00;6107604;23;19993;-87
2023/04/01 05:47:18;;;;;;;4.30;3.22;;;;;;;14.49;48.11;98210.34;6111947;23;20475;-87
2023/04/01 05:49:43;;;;;;;10.48;5.53;;;;;;;14.58;47.72;98209.56;6134399;23;19989;-87
2023/04/01 05:52:09;;;;;;;7.15;3.42;;;;;;;14.68;47.92;98215.41;6108296;23;20349;-87
2023/04/01 05:54:34;;;;;;;10.02;6.90;;;;;;;14.75;47.30;98213.00;6133594;23;19993;-87
2023/04/01 05:57:00;;;;;;;5.93;3.17;;;;;;;14.85;47.00;98208.34;6108061;23;20002;-87
2023/04/01 05:59:25;;;;;;;6.32;3.25;;;;;;;14.94;46.88;98215.31;6108790;23;20001;-87
2023/04/01 06:01:51;;;;;;;11.25;3.55;;;;;;;14.91;47.35;98210.53;6108589;23;19997;-87
2023/04/01 06:04:17;;;;;;;6.53;2.92;;;;;;;14.85;46.74;98209.13;6108470;23;20016;-88
2023/04/01 06:06:43;;;;;;;7.15;3.00;;;;;;;14.90;47.16;98195.41;6108468;23;20057;-87
2023/04/01 06:09:16;;;;;;;7.82;2.90;;;;;;;14.89;47.41;98193.03;6110901;23;20091;-88
2023/04/01 06:12:08;;;;;;;4.57;2.50;;;;;;;14.94;47.00;98195.53;6108743;23;20487;-87
2023/04/01 06:14:50;;;;;;;10.75;3.08;;;;;;;15.01;47.94;98201.25;6136534;23;20060;-88
2023/04/01 06:17:27;;;;;;;8.35;3.65;;;;;;;14.95;48.89;98200.63;6110624;23;20057;-88
2023/04/01 06:20:06;;;;;;;7.90;3.55;;;;;;;15.00;49.56;98201.56;6134284;23;20317;-88
2023/04/01 06:22:46;;;;;;;9.52;3.72;;;;;;;15.05;48.72;98210.34;6135563;23;20054;-88
2023/04/01 06:25:24;;;;;;;8.43;3.55;;;;;;;14.97;49.06;98194.13;6133758;23;20005;-88
2023/04/01 06:28:20;;;;;;;7.53;3.95;;;;;;;15.07;48.48;98201.88;6108348;23;20005;-89
2023/04/01 06:31:10;;;;;;;7.85;4.05;;;;;;;15.09;49.14;98200.41;6158606;23;20004;-88
2023/04/01 06:34:07;;;;;;;5.97;2.95;;;;;;;15.14;46.94;98197.50;6129392;23;20018;-95
2023/04/01 06:37:12;;;;;;;6.40;3.38;;;;;;;15.21;47.33;98188.88;6127195;23;20085;-88
2023/04/01 06:39:59;;;;;;;7.32;4.60;;;;;;;15.26;48.08;98190.59;6102295;23;20102;-88
2023/04/01 06:42:34;;;;;;;10.13;3.55;;;;;;;15.33;48.30;98196.28;6102214;23;20425;-88
2023/04/01 06:45:15;;;;;;;11.18;4.00;;;;;;;15.34;48.63;98195.19;6128790;23;19998;-88
2023/04/01 06:47:51;;;;;;;12.48;4.40;;;;;;;15.32;47.96;98184.66;6103296;23;20008;-89
2023/04/01 06:50:22;;;;;;;10.10;3.60;;;;;;;15.45;48.74;98193.66;6102316;23;20012;-87
2023/04/01 06:52:57;;;;;;;11.10;4.73;;;;;;;15.40;48.33;98180.31;6127169;23;20030;-86
2023/04/01 06:55:37;;;;;;;15.27;6.15;;;;;;;15.45;48.46;98173.88;6127384;23;20037;-86
2023/04/01 06:58:04;;;;;;;13.73;6.60;;;;;;;15.56;47.82;98170.47;6128142;23;20017;-87
2023/04/01 07:00:35;;;;;;;13.43;5.85;;;;;;;15.63;47.96;98172.63;6103087;23;20052;-87
2023/04/01 07:03:26;;;;;;;10.32;6.25;;;;;;;15.68;47.68;98182.50;6079743;23;20029;-87
2023/04/01 07:05:51;;;;;;;7.90;4.95;;;;;;;15.59;47.48;98158.16;6080168;23;20006;-88
2023/04/01 07:08:20;;;;;;;6.40;4.13;;;;;;;15.67;46.66;98170.06;6079094;23;20029;-87
2023/04/01 07:11:05;;;;;;;14.02;4.75;;;;;;;15.67;47.12;98161.91;6078759;23;20061;-87
2023/04/01 07:13:32;;;;;;;11.10;4.20;;;;;;;15.81;47.00;98192.28;6085570;23;19985;-87
2023/04/01 07:16:12;;;;;;;9.98;3.88;;;;;;;15.76;46.92;98178.94;6103568;23;20029;-87
2023/04/01 07:18:47;;;;;;;11.30;5.07;;;;;;;15.76;47.33;98170.81;6080448;23;20010;-87
2023/04/01 07:21:34;;;;;;;6.68;4.07;;;;;;;15.80;47.71;98166.28;6103709;23;19998;-87
2023/04/01 07:24:04;;;;;;;10.52;5.00;;;;;;;15.84;47.73;98167.22;6080535;23;20025;-87
2023/04/01 07:26:29;;;;;;;14.73;5.85;;;;;;;15.92;48.07;98176.41;6103104;23;20006;-87
2023/04/01 07:28:55;;;;;;;14.23;5.88;;;;;;;16.02;48.52;98177.91;6078618;23;20073;-87
2023/04/01 07:31:54;;;;;;;13.90;6.60;;;;;;;16.03;49.17;98176.81;6107577;23;20357;-87
2023/04/01 07:34:28;;;;;;;15.73;6.43;;;;;;;16.06;49.14;98174.22;6156702;23;19997;-87
2023/04/01 07:37:06;;;;;;;9.65;4.78;;;;;;;16.01;47.26;98160.06;6084720;23;20001;-87
2023/04/01 07:40:05;;;;;;;13.43;5.30;;;;;;;16.24;47.01;98146.88;6107779;23;20137;-87
2023/04/01 07:42:43;;;;;;;10.05;4.43;;;;;;;16.38;45.20;98135.72;6121536;23;20029;-87
2023/04/01 07:45:25;;;;;;;7.47;2.88;;;;;;;16.57;43.42;98147.59;6133467;23;20054;-87
2023/04/01 07:48:19;;;;;;;9.05;3.50;;;;;;;16.62;43.63;98133.03;6158953;23;20060;-87
2023/04/01 07:51:25;;;;;;;5.95;3.03;;;;;;;16.79;43.38;98134.72;6086441;23;20028;-88
2023/04/01 07:54:05;;;;;;;9.35;3.83;;;;;;;17.08;43.10;98143.78;6087434;23;20055;-87
2023/04/01 07:56:34;;;;;;;4.35;2.40;;;;;;;17.27;42.41;98126.88;6157575;23;20056;-88
2023/04/01 07:59:12;;;;;;;5.35;2.30;;;;;;;17.36;41.32;98109.28;6158095;23;20002;-88
2023/04/01 08:01:52;;;;;;;4.97;2.30;;;;;;;17.61;40.98;98081.19;6133147;23;20001;-88
2023/04/01 08:04:37;;;;;;;7.47;2.35;;;;;;;17.83;40.91;98079.88;6156752;23;20009;-88
2023/04/01 08:07:10;;;;;;;4.72;2.60;;;;;;;18.02;39.64;98090.09;6132929;23;20009;-87
2023/04/01 08:09:44;;;;;;;9.20;3.05;;;;;;;18.08;39.06;98077.81;6132545;23;19997;-88
2023/04/01 08:12:32;;;;;;;4.45;2.97;;;;;;;18.30;39.03;98079.13;6157239;23;20028;-88
2023/04/01 08:15:10;;;;;;;6.07;4.10;;;;;;;18.40;39.33;98075.09;6132468;23;20002;-88
2023/04/01 08:17:41;;;;;;;5.93;3.53;;;;;;;18.45;39.52;98072.91;6161020;23;20001;-88
2023/04/01 08:20:28;;;;;;;9.63;4.25;;;;;;;18.55;38.27;98068.81;6160333;23;20068;-89
2023/04/01 08:22:59;;;;;;;6.95;2.88;;;;;;;18.75;37.94;98061.50;6134071;23;20028;-88
2023/04/01 08:25:27;;;;;;;3.57;2.10;;;;;;;18.87;36.91;98061.44;6110325;23;20001;-88
2023/04/01 08:27:58;;;;;;;4.07;2.22;;;;;;;19.07;35.60;98065.00;6085912;23;20005;-87
2023/04/01 08:30:26;;;;;;;4.47;2.03;;;;;;;19.31;34.83;98047.53;6158409;23;20001;-88
2023/04/01 08:32:56;;;;;;;4.03;1.85;;;;;;;19.62;33.09;98058.69;6109781;23;20025;-87
2023/04/01 08:35:35;;;;;;;2.47;1.55;;;;;;;19.77;32.72;98042.22;6134461;23;20002;-87
2023/04/01 08:38:05;;;;;;;2.50;1.48;;;;;;;19.97;31.51;98034.78;6136141;23;19997;-88
2023/04/01 08:40:49;;;;;;;4.72;1.83;;;;;;;20.06;31.48;98040.00;6085616;23;20330;-88
2023/04/01 08:43:27;;;;;;;3.40;1.50;;;;;;;20.29;31.13;98037.25;6157034;23;20015;-87
2023/04/01 08:46:17;;;;;;;7.70;2.15;;;;;;;20.44;31.07;98042.94;6156983;23;20013;-88
2023/04/01 08:49:14;;;;;;;4.22;2.03;;;;;;;20.45;31.48;98034.38;6157965;23;20085;-88
2023/04/01 08:51:46;;;;;;;6.40;2.15;;;;;;;20.34;32.61;98041.63;6158300;23;20005;-87
2023/04/01 08:54:29;;;;;;;4.20;1.90;;;;;;;20.28;32.51;98038.41;6134024;23;20017;-89
2023/04/01 08:57:15;;;;;;;9.45;2.50;;;;;;;20.33;33.73;98035.34;6134806;23;20515;-89
2023/04/01 08:59:57;;;;;;;5.32;2.30;;;;;;;20.34;34.27;98047.09;6134293;23;20006;-88
2023/04/01 09:02:26;;;;;;;5.38;2.28;;;;;;;20.27;34.56;98044.25;6134905;23;20005;-89
2023/04/01 09:04:58;;;;;;;3.22;1.90;;;;;;;20.36;34.32;98050.25;6135031;23;20013;-89
2023/04/01 09:07:45;;;;;;;4.95;1.88;;;;;;;20.38;34.68;98031.53;6158346;23;20008;-88
2023/04/01 09:10:23;;;;;;;2.75;1.88;;;;;;;20.45;34.63;98037.13;6137337;23;19998;-88
2023/04/01 09:13:13;;;;;;;3.25;1.88;;;;;;;20.49;34.39;98032.50;6158159;23;20005;-88
2023/04/01 09:15:54;;;;;;;9.48;2.67;;;;;;;20.48;34.79;98039.13;6136797;23;20041;-89
2023/04/01 09:18:36;;;;;;;4.78;2.40;;;;;;;20.42;35.00;98018.72;6132598;23;20093;-88
2023/04/01 09:21:10;;;;;;;6.65;2.08;;;;;;;20.52;35.13;98015.38;6135178;23;20388;-88
2023/04/01 09:24:06;;;;;;;4.10;1.90;;;;;;;20.40;35.00;98015.56;6133672;23;20001;-88
2023/04/01 09:27:09;;;;;;;6.18;2.30;;;;;;;20.50;35.35;98016.88;6158751;23;20028;-88
2023/04/01 09:29:35;;;;;;;3.90;2.00;;;;;;;20.23;34.82;98003.16;6133041;23;20025;-87
2023/04/01 09:32:22;;;;;;;5.47;2.28;;;;;;;20.16;34.40;98008.53;6157552;23;20024;-87
2023/04/01 09:34:54;;;;;;;4.70;2.28;;;;;;;20.28;34.39;98002.09;6133908;23;20429;-88
2023/04/01 09:37:32;;;;;;;4.47;2.05;;;;;;;20.25;34.24;97997.34;6158466;23;20001;-89
2023/04/01 09:40:17;;;;;;;5.00;2.03;;;;;;;20.19;34.74;97986.75;6158667;23;20009;-88
2023/04/01 09:43:04;;;;;;;5.20;2.05;;;;;;;20.13;34.69;97985.47;6157487;23;20064;-88
2023/04/01 09:45:32;;;;;;;4.22;1.58;;;;;;;20.03;34.42;97994.28;6137051;23;20016;-88
2023/04/01 09:48:21;;;;;;;3.78;1.75;;;;;;;20.16;33.95;97989.41;6161179;23;20001;-88
2023/04/01 09:51:24;;;;;;;4.85;2.10;;;;;;;20.16;33.87;97986.69;6132881;23;20008;-87
2023/04/01 09:53:56;;;;;;;6.03;1.60;;;;;;;20.07;33.84;97986.94;6138908;23;20421;-88
2023/04/01 09:56:43;;;;;;;3.67;1.88;;;;;;;20.07;33.89;97989.66;6133010;23;20060;-88
2023/04/01 09:59:33;;;;;;;5.30;1.63;;;;;;;20.22;33.08;97977.00;6157176;23;20044;-88
2023/04/01 10:02:26;;;;;;;8.13;1.75;;;;;;;20.43;32.81;97975.75;6157153;23;20001;-88
2023/04/01 10:05:18;;;;;;;4.82;3.47;;;;;;;20.63;32.65;97979.19;6134342;23;20393;-88
2023/04/01 10:08:20;;;;;;;4.38;1.90;;;;;;;20.85;32.02;97988.47;6134307;23;20029;-88
2023/04/01 10:11:04;;;;;;;;;;;;;;;21.04;31.50;97985.59;6157966;23;20343;-88
2023/04/01 10:13:51;;;;;;;2.15;1.40;;;;;;;21.07;30.69;97990.34;6133478;23;20387;-88
2023/04/01 10:16:55;;;;;;;3.78;1.80;;;;;;;21.18;31.05;97987.72;6157843;23;20080;-90
2023/04/01 10:19:54;;;;;;;2.90;1.65;;;;;;;21.18;31.27;97993.97;6140824;23;20012;-95
2023/04/01 10:22:35;;;;;;;4.40;2.70;;;;;;;21.39;30.93;97993.47;6159668;23;20087;-96
2023/04/01 10:25:31;;;;;;;7.50;2.50;;;;;;;21.42;30.83;97988.38;6159850;23;20002;-95
2023/04/01 10:28:00;;;;;;;4.18;2.22;;;;;;;21.19;31.25;97981.88;6160314;23;20005;-95
2023/04/01 10:30:50;;;;;;;5.05;1.70;;;;;;;20.58;31.87;97977.56;6159465;23;20033;-95
2023/04/01 10:33:50;;;;;;;4.03;1.90;;;;;;;20.72;32.16;97949.63;6159391;23;20101;-95
2023/04/01 10:36:28;;;;;;;4.22;1.90;;;;;;;20.71;32.38;97943.38;6138091;23;20029;-95
2023/04/01 10:38:58;;;;;;;3.97;1.58;;;;;;;20.42;32.49;97916.75;6160055;23;20009;-95
2023/04/01 10:42:03;;;;;;;7.57;2.30;;;;;;;20.70;32.63;97921.84;6135841;23;20005;-93
2023/04/01 10:44:54;;;;;;;3.38;2.40;;;;;;;20.94;32.26;97920.59;6133572;23;20002;-95
2023/04/01 10:47:25;;;;;;;6.75;1.88;;;;;;;21.02;32.41;97908.53;6159730;23;20006;-93
2023/04/01 10:50:15;;;;;;;4.15;2.00;;;;;;;21.13;32.25;97901.25;6159697;23;20001;-93
2023/04/01 10:52:54;;;;;;;4.03;2.13;;;;;;;20.90;32.95;97884.19;6158997;23;20001;-95
2023/04/01 10:55:25;;;;;;;5.15;1.95;;;;;;;20.85;32.41;97879.03;6137204;23;20038;-94
2023/04/01 10:57:51;;;;;;;5.15;1.75;;;;;;;21.07;31.98;97891.03;6158594;23;20001;-93
2023/04/01 11:00:52;;;;;;;5.70;2.20;;;;;;;20.94;32.42;97880.34;6160476;23;20459;-89
2023/04/01 11:03:55;;;;;;;7.68;2.35;;;;;;;20.84;33.00;97877.47;6120327;23;20001;-94
2023/04/01 11:06:46;;;;;;;6.53;2.00;;;;;;;20.36;33.40;97861.63;6158533;23;20341;-94
2023/04/01 11:09:33;;;;;;;2.83;1.73;;;;;;;20.52;33.21;97861.41;6135086;23;20080;-94
2023/04/01 11:11:58;;;;;;;3.05;1.70;;;;;;;20.55;33.37;97860.69;6159543;23;20333;-95
2023/04/01 11:14:36;;;;;;;3.10;2.10;;;;;;;20.74;32.98;97866.03;6158713;23;20012;-95
2023/04/01 11:17:18;;;;;;;1.98;1.50;;;;;;;20.76;32.87;97852.75;6159538;23;20429;-93
2023/04/01 11:20:08;;;;;;;2.70;1.80;;;;;;;20.96;32.15;97860.81;6136976;23;20016;-95
2023/04/01 11:22:40;;;;;;;5.18;2.38;;;;;;;21.12;31.17;97855.09;6158706;23;20001;-95
2023/04/01 11:25:05;;;;;;;4.53;2.03;;;;;;;21.15;31.84;97843.41;6158226;23;20016;-93
2023/04/01 11:27:54;;;;;;;2.53;1.52;;;;;;;20.83;32.37;97830.16;6159092;23;20005;-95
2023/04/01 11:30:22;;;;;;;4.50;1.50;;;;;;;20.93;31.63;97825.97;6158668;23;20009;-94
2023/04/01 11:32:56;;;;;;;3.63;1.65;;;;;;;20.51;32.23;97827.81;6158230;23;20028;-93
2023/04/01 11:35:36;;;;;;;5.35;1.90;;;;;;;20.64;31.31;97816.66;6158952;23;20011;-95
2023/04/01 11:38:19;;;;;;;7.03;3.30;;;;;;;20.75;30.94;97821.13;6086950;23;20005;-95
2023/04/01 11:41:17;;;;;;;4.32;1.80;;;;;;;20.71;30.54;97828.50;6134487;23;20005;-95
2023/04/01 11:43:42;;;;;;;4.40;1.80;;;;;;;20.79;30.25;97823.88;6133382;23;20025;-94
2023/04/01 11:46:15;;;;;;;4.32;1.70;;;;;;;20.76;31.23;97828.16;6158560;23;20005;-93
2023/04/01 11:49:14;;;;;;;4.75;1.65;;;;;;;20.69;31.33;97825.34;6087470;23;20024;-93
2023/04/01 11:51:52;;;;;;;5.55;1.70;;;;;;;20.57;32.12;97812.66;6156699;23;20005;-93
2023/04/01 11:54:34;;;;;;;5.13;1.88;;;;;;;20.39;32.81;97812.44;6158435;23;20444;-94
2023/04/01 11:57:12;;;;;;;4.13;1.50;;;;;;;20.35;33.03;97805.38;6135295;23;20013;-95
2023/04/01 11:59:43;;;;;;;6.13;2.15;;;;;;;20.36;34.46;97809.69;6158439;23;20002;-93
2023/04/01 12:02:34;;;;;;;2.72;1.63;;;;;;;20.19;34.59;97803.63;6157482;23;20028;-93
2023/04/01 12:05:33;;;;;;;6.80;2.33;;;;;;;20.37;35.06;97792.13;6158264;23;20404;-95